sensor_id;sensor_type;location;lat;lon;timestamp;pressure;altitude;pressure_sealevel;temperature;humidity
64632;BME280;58358;50.936;0.246;2023-04-25T00:01:11;100794.14;;;3.35;96.54
64632;BME280;58358;50.936;0.246;2023-04-25T00:03:37;100794.85;;;3.53;97.52
64632;BME280;58358;50.936;0.246;2023-04-25T00:06:03;100792.69;;;2.80;97.88
64632;BME280;58358;50.936;0.246;2023-04-25T00:08:28;100792.17;;;3.18;96.28
64632;BME280;58358;50.936;0.246;2023-04-25T00:10:54;100796.46;;;4.66;93.01
64632;BME280;58358;50.936;0.246;2023-04-25T00:13:19;100806.67;;;2.35;98.67
64632;BME280;58358;50.936;0.246;2023-04-25T00:15:45;100804.48;;;3.17;98.42
64632;BME280;58358;50.936;0.246;2023-04-25T00:18:10;100807.57;;;2.35;100.00
64632;BME280;58358;50.936;0.246;2023-04-25T00:20:36;100814.41;;;2.86;99.15
64632;BME280;58358;50.936;0.246;2023-04-25T00:23:02;100811.53;;;2.53;100.00
64632;BME280;58358;50.936;0.246;2023-04-25T00:25:28;100809.95;;;2.42;100.00
64632;BME280;58358;50.936;0.246;2023-04-25T00:27:53;100805.63;;;2.59;100.00
64632;BME280;58358;50.936;0.246;2023-04-25T00:30:18;100808.93;;;2.16;100.00
64632;BME280;58358;50.936;0.246;2023-04-25T00:32:43;100811.44;;;2.35;100.00
64632;BME280;58358;50.936;0.246;2023-04-25T00:35:09;100816.15;;;3.25;97.90
64632;BME280;58358;50.936;0.246;2023-04-25T00:37:34;100817.56;;;3.57;95.58
64632;BME280;58358;50.936;0.246;2023-04-25T00:40:00;100820.69;;;3.38;96.42
64632;BME280;58358;50.936;0.246;2023-04-25T00:42:26;100825.77;;;2.98;96.32
64632;BME280;58358;50.936;0.246;2023-04-25T00:44:52;100827.77;;;3.28;95.00
64632;BME280;58358;50.936;0.246;2023-04-25T00:47:17;100835.34;;;3.49;92.50
64632;BME280;58358;50.936;0.246;2023-04-25T00:49:42;100838.84;;;4.45;93.52
64632;BME280;58358;50.936;0.246;2023-04-25T00:52:08;100842.22;;;4.13;92.83
64632;BME280;58358;50.936;0.246;2023-04-25T00:54:33;100851.56;;;3.78;92.19
64632;BME280;58358;50.936;0.246;2023-04-25T00:57:00;100851.30;;;4.52;91.53
64632;BME280;58358;50.936;0.246;2023-04-25T00:59:25;100863.57;;;4.80;91.21
64632;BME280;58358;50.936;0.246;2023-04-25T01:01:50;100871.61;;;4.29;89.54
64632;BME280;58358;50.936;0.246;2023-04-25T01:04:15;100868.52;;;4.25;91.12
64632;BME280;58358;50.936;0.246;2023-04-25T01:06:41;100867.08;;;4.52;90.82
64632;BME280;58358;50.936;0.246;2023-04-25T01:09:07;100869.66;;;4.37;88.19
64632;BME280;58358;50.936;0.246;2023-04-25T01:11:32;100865.36;;;4.99;86.29
64632;BME280;58358;50.936;0.246;2023-04-25T01:13:58;100870.55;;;5.24;85.58
64632;BME280;58358;50.936;0.246;2023-04-25T01:16:24;100875.86;;;5.81;83.42
64632;BME280;58358;50.936;0.246;2023-04-25T01:18:49;100881.32;;;4.01;87.01
64632;BME280;58358;50.936;0.246;2023-04-25T01:21:14;100881.61;;;3.95;90.07
64632;BME280;58358;50.936;0.246;2023-04-25T01:23:41;100881.17;;;3.26;88.85
64632;BME280;58358;50.936;0.246;2023-04-25T01:26:06;100881.72;;;4.39;87.76
64632;BME280;58358;50.936;0.246;2023-04-25T01:28:30;100881.22;;;3.41;93.66
64632;BME280;58358;50.936;0.246;2023-04-25T01:30:57;100880.57;;;4.72;88.15
64632;BME280;58358;50.936;0.246;2023-04-25T01:33:21;100888.93;;;4.36;88.94
64632;BME280;58358;50.936;0.246;2023-04-25T01:35:47;100882.83;;;4.90;86.42
64632;BME280;58358;50.936;0.246;2023-04-25T01:38:13;100881.55;;;4.24;86.07
64632;BME280;58358;50.936;0.246;2023-04-25T01:40:39;100882.06;;;5.03;85.05
64632;BME280;58358;50.936;0.246;2023-04-25T01:43:04;100881.60;;;4.19;87.56
64632;BME280;58358;50.936;0.246;2023-04-25T01:45:29;100880.91;;;3.74;89.63
64632;BME280;58358;50.936;0.246;2023-04-25T01:47:55;100874.28;;;1.61;93.09
64632;BME280;58358;50.936;0.246;2023-04-25T01:50:20;100877.91;;;2.16;96.93
64632;BME280;58358;50.936;0.246;2023-04-25T01:52:46;100879.04;;;2.60;93.95
64632;BME280;58358;50.936;0.246;2023-04-25T01:55:11;100876.95;;;2.53;92.10
64632;BME280;58358;50.936;0.246;2023-04-25T01:57:37;100878.02;;;3.21;91.67
64632;BME280;58358;50.936;0.246;2023-04-25T02:00:06;100878.23;;;2.37;92.38
64632;BME280;58358;50.936;0.246;2023-04-25T02:02:28;100882.47;;;2.99;92.31
64632;BME280;58358;50.936;0.246;2023-04-25T02:04:54;100884.88;;;2.33;92.61
64632;BME280;58358;50.936;0.246;2023-04-25T02:07:19;100885.07;;;2.09;95.93
64632;BME280;58358;50.936;0.246;2023-04-25T02:09:45;100886.92;;;2.28;94.58
64632;BME280;58358;50.936;0.246;2023-04-25T02:12:10;100887.82;;;1.94;95.89
64632;BME280;58358;50.936;0.246;2023-04-25T02:14:35;100887.81;;;2.19;94.39
64632;BME280;58358;50.936;0.246;2023-04-25T02:17:00;100890.30;;;1.96;93.77
64632;BME280;58358;50.936;0.246;2023-04-25T02:19:26;100896.11;;;2.61;92.82
64632;BME280;58358;50.936;0.246;2023-04-25T02:21:51;100897.19;;;2.51;93.60
64632;BME280;58358;50.936;0.246;2023-04-25T02:24:16;100897.14;;;2.43;91.60
64632;BME280;58358;50.936;0.246;2023-04-25T02:26:42;100893.35;;;0.99;96.22
64632;BME280;58358;50.936;0.246;2023-04-25T02:29:06;100890.60;;;0.45;95.85
64632;BME280;58358;50.936;0.246;2023-04-25T02:31:32;100891.42;;;0.33;98.23
64632;BME280;58358;50.936;0.246;2023-04-25T02:33:57;100900.35;;;1.70;95.66
64632;BME280;58358;50.936;0.246;2023-04-25T02:36:23;100903.15;;;1.80;94.28
64632;BME280;58358;50.936;0.246;2023-04-25T02:38:48;100909.57;;;1.87;93.39
64632;BME280;58358;50.936;0.246;2023-04-25T02:41:13;100912.75;;;2.02;92.37
64632;BME280;58358;50.936;0.246;2023-04-25T02:43:38;100917.85;;;3.01;88.02
64632;BME280;58358;50.936;0.246;2023-04-25T02:46:03;100919.14;;;2.32;91.02
64632;BME280;58358;50.936;0.246;2023-04-25T02:48:28;100923.39;;;1.90;90.66
64632;BME280;58358;50.936;0.246;2023-04-25T02:50:54;100923.02;;;2.15;91.10
64632;BME280;58358;50.936;0.246;2023-04-25T02:53:19;100929.37;;;2.99;87.68
64632;BME280;58358;50.936;0.246;2023-04-25T02:55:44;100926.80;;;2.54;86.77
64632;BME280;58358;50.936;0.246;2023-04-25T02:58:09;100929.54;;;3.30;86.09
64632;BME280;58358;50.936;0.246;2023-04-25T03:00:35;100931.40;;;2.90;85.94
64632;BME280;58358;50.936;0.246;2023-04-25T03:03:01;100936.00;;;2.43;89.34
64632;BME280;58358;50.936;0.246;2023-04-25T03:05:26;100937.23;;;2.97;86.54
64632;BME280;58358;50.936;0.246;2023-04-25T03:07:51;100936.59;;;2.66;86.58
64632;BME280;58358;50.936;0.246;2023-04-25T03:10:16;100932.84;;;1.93;88.76
64632;BME280;58358;50.936;0.246;2023-04-25T03:12:41;100934.49;;;2.51;87.28
64632;BME280;58358;50.936;0.246;2023-04-25T03:15:07;100935.27;;;1.27;91.77
64632;BME280;58358;50.936;0.246;2023-04-25T03:17:32;100932.73;;;1.92;90.14
64632;BME280;58358;50.936;0.246;2023-04-25T03:19:58;100932.92;;;2.74;87.57
64632;BME280;58358;50.936;0.246;2023-04-25T03:22:24;100933.82;;;2.52;86.22
64632;BME280;58358;50.936;0.246;2023-04-25T03:24:49;100930.12;;;2.76;85.27
64632;BME280;58358;50.936;0.246;2023-04-25T03:27:14;100929.62;;;2.18;85.22
64632;BME280;58358;50.936;0.246;2023-04-25T03:29:39;100930.47;;;1.84;89.57
64632;BME280;58358;50.936;0.246;2023-04-25T03:32:05;100928.94;;;2.47;86.95
64632;BME280;58358;50.936;0.246;2023-04-25T03:34:30;100933.60;;;2.47;85.71
64632;BME280;58358;50.936;0.246;2023-04-25T03:36:55;100938.04;;;1.90;86.87
64632;BME280;58358;50.936;0.246;2023-04-25T03:39:20;100939.86;;;2.50;86.00
64632;BME280;58358;50.936;0.246;2023-04-25T03:41:45;100944.41;;;1.81;87.18
64632;BME280;58358;50.936;0.246;2023-04-25T03:44:10;100946.72;;;1.97;89.90
64632;BME280;58358;50.936;0.246;2023-04-25T03:46:35;100948.41;;;2.13;87.48
64632;BME280;58358;50.936;0.246;2023-04-25T03:49:00;100955.64;;;1.34;90.04
64632;BME280;58358;50.936;0.246;2023-04-25T03:51:26;100959.05;;;1.73;88.77
64632;BME280;58358;50.936;0.246;2023-04-25T03:53:51;100958.51;;;1.69;88.94
64632;BME280;58358;50.936;0.246;2023-04-25T03:56:17;100961.16;;;1.97;88.30
64632;BME280;58358;50.936;0.246;2023-04-25T03:58:42;100964.67;;;0.57;92.58
64632;BME280;58358;50.936;0.246;2023-04-25T04:01:07;100967.55;;;1.23;92.39
64632;BME280;58358;50.936;0.246;2023-04-25T04:03:33;100965.82;;;0.28;94.76
64632;BME280;58358;50.936;0.246;2023-04-25T04:05:58;100970.44;;;0.44;95.45
64632;BME280;58358;50.936;0.246;2023-04-25T04:08:23;100973.46;;;0.77;91.68
64632;BME280;58358;50.936;0.246;2023-04-25T04:10:48;100977.60;;;0.69;92.94
64632;BME280;58358;50.936;0.246;2023-04-25T04:13:13;100986.38;;;1.42;90.98
64632;BME280;58358;50.936;0.246;2023-04-25T04:15:39;100986.26;;;1.95;88.02
64632;BME280;58358;50.936;0.246;2023-04-25T04:18:04;100999.87;;;0.03;91.00
64632;BME280;58358;50.936;0.246;2023-04-25T04:20:30;100998.15;;;2.41;86.27
64632;BME280;58358;50.936;0.246;2023-04-25T04:22:54;100998.88;;;2.00;85.25
64632;BME280;58358;50.936;0.246;2023-04-25T04:25:20;100999.03;;;1.13;88.34
64632;BME280;58358;50.936;0.246;2023-04-25T04:27:45;101005.68;;;1.83;86.54
64632;BME280;58358;50.936;0.246;2023-04-25T04:30:11;101006.19;;;1.65;86.46
64632;BME280;58358;50.936;0.246;2023-04-25T04:32:36;101006.15;;;2.06;84.30
64632;BME280;58358;50.936;0.246;2023-04-25T04:35:02;101012.50;;;0.37;86.93
64632;BME280;58358;50.936;0.246;2023-04-25T04:37:27;101021.91;;;0.29;88.29
64632;BME280;58358;50.936;0.246;2023-04-25T04:39:52;101023.84;;;1.46;88.96
64632;BME280;58358;50.936;0.246;2023-04-25T04:42:17;101023.13;;;1.05;88.11
64632;BME280;58358;50.936;0.246;2023-04-25T04:44:42;101023.43;;;1.06;88.52
64632;BME280;58358;50.936;0.246;2023-04-25T04:47:07;101032.96;;;0.21;91.37
64632;BME280;58358;50.936;0.246;2023-04-25T04:49:33;101034.58;;;1.09;88.57
64632;BME280;58358;50.936;0.246;2023-04-25T04:51:58;101041.76;;;0.71;88.29
64632;BME280;58358;50.936;0.246;2023-04-25T04:54:23;101056.38;;;1.32;86.31
64632;BME280;58358;50.936;0.246;2023-04-25T04:56:48;101060.52;;;0.73;89.64
64632;BME280;58358;50.936;0.246;2023-04-25T04:59:14;101063.30;;;0.89;87.98
64632;BME280;58358;50.936;0.246;2023-04-25T05:01:40;101068.63;;;0.13;89.53
64632;BME280;58358;50.936;0.246;2023-04-25T05:04:05;101074.30;;;0.42;89.83
64632;BME280;58358;50.936;0.246;2023-04-25T05:06:30;101083.81;;;-0.57;91.62
64632;BME280;58358;50.936;0.246;2023-04-25T05:08:56;101088.25;;;0.66;88.87
64632;BME280;58358;50.936;0.246;2023-04-25T05:11:22;101091.77;;;0.21;88.74
64632;BME280;58358;50.936;0.246;2023-04-25T05:13:47;101093.45;;;-0.25;90.20
64632;BME280;58358;50.936;0.246;2023-04-25T05:16:12;101095.97;;;-0.29;89.88
64632;BME280;58358;50.936;0.246;2023-04-25T05:18:37;101096.34;;;0.15;91.57
64632;BME280;58358;50.936;0.246;2023-04-25T05:21:03;101099.73;;;0.52;89.21
64632;BME280;58358;50.936;0.246;2023-04-25T05:23:28;101096.68;;;1.34;87.71
64632;BME280;58358;50.936;0.246;2023-04-25T05:25:53;101101.31;;;-0.35;90.69
64632;BME280;58358;50.936;0.246;2023-04-25T05:28:18;101102.27;;;0.75;89.56
64632;BME280;58358;50.936;0.246;2023-04-25T05:30:43;101101.36;;;0.72;86.76
64632;BME280;58358;50.936;0.246;2023-04-25T05:33:08;101101.61;;;-0.34;90.91
64632;BME280;58358;50.936;0.246;2023-04-25T05:35:33;101101.74;;;0.69;88.89
64632;BME280;58358;50.936;0.246;2023-04-25T05:38:00;101104.84;;;0.80;88.97
64632;BME280;58358;50.936;0.246;2023-04-25T05:40:24;101106.11;;;1.41;85.17
64632;BME280;58358;50.936;0.246;2023-04-25T05:42:50;101109.32;;;0.72;89.41
64632;BME280;58358;50.936;0.246;2023-04-25T05:45:15;101117.44;;;0.73;87.55
64632;BME280;58358;50.936;0.246;2023-04-25T05:47:40;101124.49;;;1.08;88.59
64632;BME280;58358;50.936;0.246;2023-04-25T05:50:07;101130.38;;;1.17;88.12
64632;BME280;58358;50.936;0.246;2023-04-25T05:52:30;101132.41;;;-0.05;90.16
64632;BME280;58358;50.936;0.246;2023-04-25T05:54:55;101135.47;;;0.28;91.28
64632;BME280;58358;50.936;0.246;2023-04-25T05:57:22;101132.43;;;0.02;92.32
64632;BME280;58358;50.936;0.246;2023-04-25T05:59:45;101136.81;;;0.42;92.59
64632;BME280;58358;50.936;0.246;2023-04-25T06:02:10;101136.89;;;-0.35;95.63
64632;BME280;58358;50.936;0.246;2023-04-25T06:04:36;101141.99;;;-0.54;93.33
64632;BME280;58358;50.936;0.246;2023-04-25T06:07:02;101143.10;;;0.22;91.88
64632;BME280;58358;50.936;0.246;2023-04-25T06:09:27;101146.76;;;0.74;90.25
64632;BME280;58358;50.936;0.246;2023-04-25T06:11:52;101144.70;;;0.63;90.51
64632;BME280;58358;50.936;0.246;2023-04-25T06:14:17;101142.72;;;-0.11;91.91
64632;BME280;58358;50.936;0.246;2023-04-25T06:16:42;101144.83;;;0.31;92.57
64632;BME280;58358;50.936;0.246;2023-04-25T06:19:07;101147.48;;;0.72;91.21
64632;BME280;58358;50.936;0.246;2023-04-25T06:21:32;101142.34;;;-0.01;93.90
64632;BME280;58358;50.936;0.246;2023-04-25T06:23:57;101144.96;;;-0.60;93.39
64632;BME280;58358;50.936;0.246;2023-04-25T06:26:23;101150.85;;;0.13;92.37
64632;BME280;58358;50.936;0.246;2023-04-25T06:28:48;101148.24;;;-0.11;94.17
64632;BME280;58358;50.936;0.246;2023-04-25T06:31:13;101153.94;;;0.08;94.30
64632;BME280;58358;50.936;0.246;2023-04-25T06:33:38;101154.86;;;0.08;94.63
64632;BME280;58358;50.936;0.246;2023-04-25T06:36:04;101153.96;;;0.39;92.98
64632;BME280;58358;50.936;0.246;2023-04-25T06:38:28;101158.95;;;0.11;92.75
64632;BME280;58358;50.936;0.246;2023-04-25T06:40:54;101160.22;;;-0.07;92.79
64632;BME280;58358;50.936;0.246;2023-04-25T06:43:19;101162.11;;;0.04;93.13
64632;BME280;58358;50.936;0.246;2023-04-25T06:45:44;101154.62;;;0.01;92.52
64632;BME280;58358;50.936;0.246;2023-04-25T06:48:09;101160.41;;;0.06;91.67
64632;BME280;58358;50.936;0.246;2023-04-25T06:50:34;101163.84;;;0.64;91.82
64632;BME280;58358;50.936;0.246;2023-04-25T06:53:00;101169.77;;;0.73;88.87
64632;BME280;58358;50.936;0.246;2023-04-25T06:55:25;101174.05;;;1.25;90.12
64632;BME280;58358;50.936;0.246;2023-04-25T06:57:50;101171.33;;;1.48;87.07
64632;BME280;58358;50.936;0.246;2023-04-25T07:00:16;101170.02;;;1.39;86.83
64632;BME280;58358;50.936;0.246;2023-04-25T07:02:40;101175.32;;;0.41;89.10
64632;BME280;58358;50.936;0.246;2023-04-25T07:05:05;101176.63;;;0.68;89.19
64632;BME280;58358;50.936;0.246;2023-04-25T07:07:30;101178.86;;;1.55;87.22
64632;BME280;58358;50.936;0.246;2023-04-25T07:09:55;101179.86;;;1.67;88.05
64632;BME280;58358;50.936;0.246;2023-04-25T07:12:21;101187.19;;;1.49;85.85
64632;BME280;58358;50.936;0.246;2023-04-25T07:14:47;101186.56;;;2.06;85.56
64632;BME280;58358;50.936;0.246;2023-04-25T07:17:13;101184.47;;;2.04;84.65
64632;BME280;58358;50.936;0.246;2023-04-25T07:19:38;101181.06;;;2.04;85.56
64632;BME280;58358;50.936;0.246;2023-04-25T07:22:04;101187.88;;;1.67;85.81
64632;BME280;58358;50.936;0.246;2023-04-25T07:24:30;101191.38;;;1.80;86.13
64632;BME280;58358;50.936;0.246;2023-04-25T07:26:55;101196.41;;;1.03;87.38
64632;BME280;58358;50.936;0.246;2023-04-25T07:29:21;101194.65;;;1.42;85.86
64632;BME280;58358;50.936;0.246;2023-04-25T07:31:46;101191.45;;;1.92;85.34
64632;BME280;58358;50.936;0.246;2023-04-25T07:34:12;101195.48;;;1.60;85.92
64632;BME280;58358;50.936;0.246;2023-04-25T07:36:37;101191.35;;;2.41;84.53
64632;BME280;58358;50.936;0.246;2023-04-25T07:39:02;101197.24;;;2.72;83.87
64632;BME280;58358;50.936;0.246;2023-04-25T07:41:28;101192.38;;;2.13;83.30
64632;BME280;58358;50.936;0.246;2023-04-25T07:43:54;101205.85;;;2.24;83.50
64632;BME280;58358;50.936;0.246;2023-04-25T07:46:19;101210.40;;;2.08;84.57
64632;BME280;58358;50.936;0.246;2023-04-25T07:48:45;101212.46;;;2.52;83.20
64632;BME280;58358;50.936;0.246;2023-04-25T07:51:10;101213.06;;;2.50;82.83
64632;BME280;58358;50.936;0.246;2023-04-25T07:53:36;101223.23;;;2.16;84.92
64632;BME280;58358;50.936;0.246;2023-04-25T07:56:01;101213.68;;;2.05;84.22
64632;BME280;58358;50.936;0.246;2023-04-25T07:58:27;101218.52;;;2.07;85.12
64632;BME280;58358;50.936;0.246;2023-04-25T08:00:52;101221.91;;;1.94;84.53
64632;BME280;58358;50.936;0.246;2023-04-25T08:03:18;101222.13;;;2.99;82.52
64632;BME280;58358;50.936;0.246;2023-04-25T08:05:44;101229.21;;;3.72;82.64
64632;BME280;58358;50.936;0.246;2023-04-25T08:08:09;101233.65;;;2.82;83.15
64632;BME280;58358;50.936;0.246;2023-04-25T08:10:35;101236.42;;;2.98;81.61
64632;BME280;58358;50.936;0.246;2023-04-25T08:13:02;101233.61;;;1.95;80.79
64632;BME280;58358;50.936;0.246;2023-04-25T08:15:26;101236.93;;;2.95;80.56
64632;BME280;58358;50.936;0.246;2023-04-25T08:17:52;101247.73;;;2.98;82.03
64632;BME280;58358;50.936;0.246;2023-04-25T08:20:17;101249.21;;;2.63;81.24
64632;BME280;58358;50.936;0.246;2023-04-25T08:22:42;101248.36;;;2.81;82.20
64632;BME280;58358;50.936;0.246;2023-04-25T08:25:08;101247.70;;;3.12;81.01
64632;BME280;58358;50.936;0.246;2023-04-25T08:27:33;101253.46;;;2.51;82.31
64632;BME280;58358;50.936;0.246;2023-04-25T08:29:59;101251.49;;;2.50;81.92
64632;BME280;58358;50.936;0.246;2023-04-25T08:32:23;101252.15;;;2.92;81.22
64632;BME280;58358;50.936;0.246;2023-04-25T08:34:49;101250.24;;;2.93;80.06
64632;BME280;58358;50.936;0.246;2023-04-25T08:37:14;101257.32;;;2.75;80.44
64632;BME280;58358;50.936;0.246;2023-04-25T08:39:40;101257.18;;;2.80;81.50
64632;BME280;58358;50.936;0.246;2023-04-25T08:42:07;101256.83;;;3.95;78.27
64632;BME280;58358;50.936;0.246;2023-04-25T08:44:33;101251.79;;;3.47;78.79
64632;BME280;58358;50.936;0.246;2023-04-25T08:46:56;101248.84;;;4.09;77.44
64632;BME280;58358;50.936;0.246;2023-04-25T08:49:22;101254.96;;;4.41;77.08
64632;BME280;58358;50.936;0.246;2023-04-25T08:51:48;101250.70;;;3.80;75.52
64632;BME280;58358;50.936;0.246;2023-04-25T08:54:14;101252.08;;;4.07;76.27
64632;BME280;58358;50.936;0.246;2023-04-25T08:56:41;101254.44;;;3.88;73.62
64632;BME280;58358;50.936;0.246;2023-04-25T08:59:04;101248.54;;;4.46;69.75
64632;BME280;58358;50.936;0.246;2023-04-25T09:01:30;101250.53;;;4.38;71.66
64632;BME280;58358;50.936;0.246;2023-04-25T09:03:55;101260.38;;;4.03;71.69
64632;BME280;58358;50.936;0.246;2023-04-25T09:06:21;101259.90;;;4.20;72.18
64632;BME280;58358;50.936;0.246;2023-04-25T09:08:46;101272.82;;;4.12;67.83
64632;BME280;58358;50.936;0.246;2023-04-25T09:11:12;101273.11;;;3.50;71.07
64632;BME280;58358;50.936;0.246;2023-04-25T09:13:37;101274.84;;;3.60;70.06
64632;BME280;58358;50.936;0.246;2023-04-25T09:16:02;101271.79;;;3.32;71.43
64632;BME280;58358;50.936;0.246;2023-04-25T09:18:29;101271.12;;;3.93;68.96
64632;BME280;58358;50.936;0.246;2023-04-25T09:20:54;101283.04;;;4.63;68.09
64632;BME280;58358;50.936;0.246;2023-04-25T09:23:19;101278.43;;;4.13;67.02
64632;BME280;58358;50.936;0.246;2023-04-25T09:25:47;101274.29;;;4.50;65.51
64632;BME280;58358;50.936;0.246;2023-04-25T09:28:10;101273.03;;;4.42;61.68
64632;BME280;58358;50.936;0.246;2023-04-25T09:30:37;101270.27;;;4.57;62.14
64632;BME280;58358;50.936;0.246;2023-04-25T09:33:06;101268.66;;;4.89;61.84
64632;BME280;58358;50.936;0.246;2023-04-25T09:35:28;101270.00;;;4.73;59.22
64632;BME280;58358;50.936;0.246;2023-04-25T09:37:55;101263.25;;;4.71;58.40
64632;BME280;58358;50.936;0.246;2023-04-25T09:40:20;101267.78;;;3.95;59.59
64632;BME280;58358;50.936;0.246;2023-04-25T09:42:45;101274.47;;;4.30;60.26
64632;BME280;58358;50.936;0.246;2023-04-25T09:45:13;101269.04;;;5.63;58.83
64632;BME280;58358;50.936;0.246;2023-04-25T09:47:37;101264.72;;;6.18;52.76
64632;BME280;58358;50.936;0.246;2023-04-25T09:50:03;101262.61;;;5.89;53.69
64632;BME280;58358;50.936;0.246;2023-04-25T09:52:28;101263.38;;;4.56;54.82
64632;BME280;58358;50.936;0.246;2023-04-25T09:54:54;101257.21;;;5.19;55.09
64632;BME280;58358;50.936;0.246;2023-04-25T09:57:21;101257.02;;;5.85;56.40
64632;BME280;58358;50.936;0.246;2023-04-25T09:59:47;101261.02;;;5.33;55.73
64632;BME280;58358;50.936;0.246;2023-04-25T10:02:12;101259.98;;;6.51;52.09
64632;BME280;58358;50.936;0.246;2023-04-25T10:04:38;101259.87;;;6.48;49.27
64632;BME280;58358;50.936;0.246;2023-04-25T10:07:05;101259.92;;;6.12;49.33
64632;BME280;58358;50.936;0.246;2023-04-25T10:09:29;101262.33;;;6.56;48.19
64632;BME280;58358;50.936;0.246;2023-04-25T10:11:54;101263.74;;;7.11;48.76
64632;BME280;58358;50.936;0.246;2023-04-25T10:14:20;101269.36;;;6.18;48.40
64632;BME280;58358;50.936;0.246;2023-04-25T10:16:47;101272.73;;;6.25;45.67
64632;BME280;58358;50.936;0.246;2023-04-25T10:19:12;101266.07;;;6.09;46.55
64632;BME280;58358;50.936;0.246;2023-04-25T10:21:46;101276.68;;;5.82;46.78
64632;BME280;58358;50.936;0.246;2023-04-25T10:24:04;101273.91;;;6.41;45.93
64632;BME280;58358;50.936;0.246;2023-04-25T10:26:29;101272.53;;;5.64;47.69
64632;BME280;58358;50.936;0.246;2023-04-25T10:28:56;101276.86;;;6.41;47.32
64632;BME280;58358;50.936;0.246;2023-04-25T10:31:20;101279.62;;;6.41;46.86
64632;BME280;58358;50.936;0.246;2023-04-25T10:33:46;101280.09;;;6.55;47.82
64632;BME280;58358;50.936;0.246;2023-04-25T10:36:13;101275.75;;;6.28;47.14
64632;BME280;58358;50.936;0.246;2023-04-25T10:38:38;101279.66;;;6.07;44.44
64632;BME280;58358;50.936;0.246;2023-04-25T10:41:04;101282.74;;;6.29;44.56
64632;BME280;58358;50.936;0.246;2023-04-25T10:43:35;101280.68;;;5.90;46.20
64632;BME280;58358;50.936;0.246;2023-04-25T10:45:55;101278.83;;;6.71;46.15
64632;BME280;58358;50.936;0.246;2023-04-25T10:48:25;101278.52;;;7.28;43.24
64632;BME280;58358;50.936;0.246;2023-04-25T10:50:46;101280.56;;;7.08;39.92
64632;BME280;58358;50.936;0.246;2023-04-25T10:53:14;101281.74;;;6.54;42.70
64632;BME280;58358;50.936;0.246;2023-04-25T10:55:49;101271.20;;;7.02;39.16
64632;BME280;58358;50.936;0.246;2023-04-25T10:58:04;101264.82;;;7.28;42.14
64632;BME280;58358;50.936;0.246;2023-04-25T11:00:29;101264.00;;;7.81;42.28
64632;BME280;58358;50.936;0.246;2023-04-25T11:02:58;101261.08;;;7.60;43.78
64632;BME280;58358;50.936;0.246;2023-04-25T11:05:26;101255.32;;;7.10;43.16
64632;BME280;58358;50.936;0.246;2023-04-25T11:07:50;101253.63;;;7.66;44.29
64632;BME280;58358;50.936;0.246;2023-04-25T11:10:14;101260.30;;;6.67;46.86
64632;BME280;58358;50.936;0.246;2023-04-25T11:12:39;101268.76;;;5.75;45.26
64632;BME280;58358;50.936;0.246;2023-04-25T11:15:06;101268.88;;;6.64;45.65
64632;BME280;58358;50.936;0.246;2023-04-25T11:17:29;101269.14;;;6.54;43.88
64632;BME280;58358;50.936;0.246;2023-04-25T11:19:55;101265.87;;;5.35;44.57
64632;BME280;58358;50.936;0.246;2023-04-25T11:22:21;101268.10;;;6.28;45.15
64632;BME280;58358;50.936;0.246;2023-04-25T11:24:47;101268.92;;;5.78;42.49
64632;BME280;58358;50.936;0.246;2023-04-25T11:27:12;101260.47;;;5.03;44.15
64632;BME280;58358;50.936;0.246;2023-04-25T11:29:38;101263.60;;;6.06;43.11
64632;BME280;58358;50.936;0.246;2023-04-25T11:32:04;101265.59;;;5.80;41.91
64632;BME280;58358;50.936;0.246;2023-04-25T11:34:31;101258.30;;;5.71;41.41
64632;BME280;58358;50.936;0.246;2023-04-25T11:36:56;101263.64;;;6.14;43.71
64632;BME280;58358;50.936;0.246;2023-04-25T11:39:23;101261.15;;;7.22;38.41
64632;BME280;58358;50.936;0.246;2023-04-25T11:41:47;101261.81;;;6.45;39.79
64632;BME280;58358;50.936;0.246;2023-04-25T11:44:15;101262.30;;;7.00;39.60
64632;BME280;58358;50.936;0.246;2023-04-25T11:46:39;101261.05;;;6.65;42.99
64632;BME280;58358;50.936;0.246;2023-04-25T11:49:05;101263.03;;;7.76;41.30
64632;BME280;58358;50.936;0.246;2023-04-25T11:51:38;101263.30;;;7.93;40.26
64632;BME280;58358;50.936;0.246;2023-04-25T11:53:56;101267.47;;;6.62;43.23
64632;BME280;58358;50.936;0.246;2023-04-25T11:56:22;101269.04;;;6.50;42.38
64632;BME280;58358;50.936;0.246;2023-04-25T11:58:55;101263.97;;;7.64;40.25
64632;BME280;58358;50.936;0.246;2023-04-25T12:03:45;101262.49;;;7.55;40.60
64632;BME280;58358;50.936;0.246;2023-04-25T12:06:05;101270.99;;;6.68;38.79
64632;BME280;58358;50.936;0.246;2023-04-25T12:08:31;101260.93;;;7.76;37.76
64632;BME280;58358;50.936;0.246;2023-04-25T12:10:56;101261.26;;;7.04;40.16
64632;BME280;58358;50.936;0.246;2023-04-25T12:13:23;101265.02;;;7.65;38.05
64632;BME280;58358;50.936;0.246;2023-04-25T12:15:48;101263.17;;;7.34;38.15
64632;BME280;58358;50.936;0.246;2023-04-25T12:18:13;101270.64;;;8.09;38.73
64632;BME280;58358;50.936;0.246;2023-04-25T12:20:39;101274.00;;;8.58;37.84
64632;BME280;58358;50.936;0.246;2023-04-25T12:23:06;101279.23;;;7.97;39.38
64632;BME280;58358;50.936;0.246;2023-04-25T12:25:35;101285.26;;;8.32;39.86
64632;BME280;58358;50.936;0.246;2023-04-25T12:28:10;101281.77;;;9.30;38.86
64632;BME280;58358;50.936;0.246;2023-04-25T12:30:22;101288.32;;;8.66;38.11
64632;BME280;58358;50.936;0.246;2023-04-25T12:32:48;101291.91;;;7.98;38.10
64632;BME280;58358;50.936;0.246;2023-04-25T12:35:14;101290.42;;;8.19;36.15
64632;BME280;58358;50.936;0.246;2023-04-25T12:37:39;101290.59;;;8.54;37.29
64632;BME280;58358;50.936;0.246;2023-04-25T12:40:06;101295.91;;;8.05;37.98
64632;BME280;58358;50.936;0.246;2023-04-25T12:42:31;101294.16;;;7.39;36.78
64632;BME280;58358;50.936;0.246;2023-04-25T12:44:57;101292.12;;;8.84;38.16
64632;BME280;58358;50.936;0.246;2023-04-25T12:47:22;101292.43;;;9.41;34.83
64632;BME280;58358;50.936;0.246;2023-04-25T12:49:48;101291.72;;;8.38;35.42
64632;BME280;58358;50.936;0.246;2023-04-25T12:52:14;101294.21;;;10.49;35.84